Time;durP1;ratioP1;P1;durP2;ratioP2;P2;SDS_P1;SDS_P2;PMS_P1;PMS_P2;Temp;Humidity;BMP_temperature;BMP_pressure;BME280_temperature;BME280_humidity;BME280_pressure;Samples;Min_cycle;Max_cycle;Signal;HPM_P1;HPM_P2
2022/07/06 00:03:22;;;;;;;71.45;39.17;;;;;;;18.54;81.77;99470.75;5112138;23;20043;-93
2022/07/06 00:05:54;;;;;;;71.75;42.25;;;;;;;18.51;82.40;99465.94;5050283;28;20033;-95
2022/07/06 00:09:46;;;;;;;73.43;43.00;;;;;;;19.27;82.56;99576.38;5075910;28;20032;-94
2022/07/06 00:16:42;;;;;;;;;;;;;;;;;;;;;
2022/07/06 00:26:08;;;;;;;74.78;42.53;;;;;;;19.21;83.66;99558.44;1004293;22;20308;-94
2022/07/06 00:28:40;;;;;;;87.78;43.72;;;;;;;18.84;83.56;99499.84;5028196;28;20128;-92
2022/07/06 00:31:09;;;;;;;77.25;41.83;;;;;;;19.07;83.26;99530.41;5017105;28;20057;-93
2022/07/06 00:33:38;;;;;;;73.93;43.05;;;;;;;18.63;83.09;99456.69;5010433;28;20052;-95
2022/07/06 00:36:07;;;;;;;79.60;41.65;;;;;;;18.73;82.53;99464.44;5030970;28;20055;-95
2022/07/06 00:38:33;;;;;;;75.25;40.00;;;;;;;19.09;81.21;99500.38;5012536;28;20037;-92
2022/07/06 00:41:22;;;;;;;67.53;37.33;;;;;;;19.14;80.98;99494.53;5030283;28;20045;-92
2022/07/06 00:43:57;;;;;;;74.38;38.88;;;;;;;19.17;81.08;99507.66;5027483;28;20061;-91
2022/07/06 00:46:36;;;;;;;67.97;38.33;;;;;;;18.85;81.18;99466.28;5032062;28;20021;-91
2022/07/06 00:52:08;;;;;;;82.38;40.60;;;;;;;19.12;81.42;99544.00;5044648;28;20041;-94
2022/07/06 00:54:42;;;;;;;71.25;42.13;;;;;;;19.22;81.90;99560.81;5024452;28;20085;-92
2022/07/06 00:57:10;;;;;;;71.57;40.60;;;;;;;18.71;81.79;99482.56;5029107;28;20032;-94
2022/07/06 00:59:39;;;;;;;72.00;39.40;;;;;;;18.91;81.88;99511.13;5015419;28;20037;-90
2022/07/06 01:02:05;;;;;;;78.65;40.58;;;;;;;19.14;81.45;99561.88;5032570;28;20018;-92
2022/07/06 01:04:32;;;;;;;85.60;40.60;;;;;;;18.84;81.65;99522.84;5014296;28;20069;-91
2022/07/06 01:07:02;;;;;;;73.10;40.38;;;;;;;18.54;82.13;99486.53;5015282;28;20033;-91
2022/07/06 01:09:33;;;;;;;78.90;40.95;;;;;;;18.77;81.89;99529.03;5031776;28;20038;-95
2022/07/06 01:11:59;;;;;;;76.10;39.10;;;;;;;18.90;81.63;99559.34;5016045;28;20050;-91
2022/07/06 01:14:27;;;;;;;74.88;40.53;;;;;;;18.63;82.27;99512.06;5011451;28;20019;-89
2022/07/06 01:16:56;;;;;;;76.18;40.42;;;;;;;18.64;82.50;99505.38;5046368;28;20045;-92
2022/07/06 01:19:25;;;;;;;73.97;42.42;;;;;;;19.06;82.54;99576.72;5029546;28;20049;-91
2022/07/06 01:21:51;;;;;;;;;;;;;;;19.08;82.19;99570.81;5032519;28;20054;-91
2022/07/06 01:24:21;;;;;;;75.82;41.60;;;;;;;18.61;81.88;99491.44;4981780;28;19988;-96
2022/07/06 01:26:47;;;;;;;85.68;42.85;;;;;;;18.54;82.11;99495.66;4972574;28;20098;-90
2022/07/06 01:29:24;;;;;;;78.55;42.50;;;;;;;18.77;82.69;99525.44;4979040;28;20125;-95
2022/07/06 01:31:51;;;;;;;74.95;44.78;;;;;;;18.50;82.80;99482.91;4993220;28;20042;-96
2022/07/06 01:34:19;;;;;;;79.22;45.80;;;;;;;18.71;82.74;99515.81;4976305;28;20094;-94
2022/07/06 01:36:46;;;;;;;80.55;46.88;;;;;;;18.85;83.23;99529.97;4993464;28;20022;-93
2022/07/06 01:39:13;;;;;;;88.35;46.58;;;;;;;18.96;82.97;99542.06;4955472;28;20535;-93
2022/07/06 01:41:39;;;;;;;81.05;44.08;;;;;;;19.03;82.63;99560.81;4958762;28;20107;-91
2022/07/06 01:44:12;;;;;;;90.82;45.55;;;;;;;18.79;82.91;99517.59;4956906;28;20053;-91
2022/07/06 01:46:38;;;;;;;91.85;47.92;;;;;;;18.53;82.70;99477.44;4970073;28;20146;-91
2022/07/06 01:49:36;;;;;;;86.68;48.30;;;;;;;18.93;83.29;99536.47;4953663;28;20118;-91
2022/07/06 01:52:06;;;;;;;83.68;47.83;;;;;;;19.00;82.99;99548.50;4942931;29;20128;-92
2022/07/06 01:54:32;;;;;;;86.90;48.05;;;;;;;18.78;82.67;99514.00;4931925;28;20054;-96
2022/07/06 01:57:20;;;;;;;93.90;49.58;;;;;;;19.14;83.01;99578.50;4973230;28;20078;-94
2022/07/06 01:59:49;;;;;;;103.40;49.65;;;;;;;18.81;83.45;99518.03;4968164;28;20042;-91
2022/07/06 02:02:17;;;;;;;99.25;52.95;;;;;;;19.02;83.80;99548.94;4972449;28;20049;-92
2022/07/06 02:04:45;;;;;;;93.50;50.85;;;;;;;19.14;83.08;99563.81;4990516;28;20050;-91
2022/07/06 02:07:11;;;;;;;95.10;51.15;;;;;;;19.18;82.92;99564.69;4970821;28;20066;-94
2022/07/06 02:09:37;;;;;;;100.70;52.30;;;;;;;18.83;82.94;99521.22;4973286;28;20062;-95
2022/07/06 02:12:04;;;;;;;100.05;51.72;;;;;;;19.15;83.51;99565.44;4975678;28;20058;-90
2022/07/06 02:14:30;;;;;;;;;;;;;;;19.33;83.39;99585.19;4966063;28;20023;-90
2022/07/06 02:16:58;;;;;;;90.13;49.42;;;;;;;18.90;83.17;99523.34;5005537;28;19912;-90
2022/07/06 02:19:29;;;;;;;93.63;53.17;;;;;;;19.11;83.79;99565.38;5027097;28;21548;-92
2022/07/06 02:21:55;;;;;;;106.97;57.88;;;;;;;18.78;83.68;99518.75;5028020;28;20025;-91
2022/07/06 02:24:22;;;;;;;119.60;61.53;;;;;;;18.96;84.21;99539.31;5032969;28;20064;-92
2022/07/06 02:27:21;;;;;;;124.30;61.40;;;;;;;19.28;83.58;99564.13;5012053;28;20046;-90
2022/07/06 02:29:57;;;;;;;129.82;61.30;;;;;;;19.36;83.69;99562.28;5028595;28;20072;-91
2022/07/06 02:32:24;;;;;;;130.23;60.92;;;;;;;19.45;83.41;99562.88;5017193;28;20049;-90
2022/07/06 02:34:58;;;;;;;131.05;61.38;;;;;;;19.34;83.00;99540.47;5029781;28;20046;-90
2022/07/06 02:37:43;;;;;;;130.82;63.75;;;;;;;19.31;83.26;99527.34;5031070;28;20069;-91
2022/07/06 02:40:19;;;;;;;132.82;61.25;;;;;;;19.70;82.99;99563.34;5026204;28;20060;-90
2022/07/06 02:42:45;;;;;;;144.30;65.05;;;;;;;19.73;83.03;99565.38;5013023;28;20048;-90
2022/07/06 02:45:16;;;;;;;131.88;66.65;;;;;;;19.87;82.96;99573.97;5003938;28;20043;-92
2022/07/06 02:47:42;;;;;;;133.38;64.55;;;;;;;19.85;82.32;99568.00;4996687;28;20030;-89
2022/07/06 02:50:09;;;;;;;137.18;61.90;;;;;;;19.97;82.51;99580.91;4996626;28;20033;-91
2022/07/06 02:52:35;;;;;;;140.63;61.95;;;;;;;19.54;81.97;99502.44;5018799;28;20111;-93
2022/07/06 02:55:04;;;;;;;120.93;60.30;;;;;;;19.94;82.20;99565.00;5020301;28;20042;-90
2022/07/06 02:57:32;;;;;;;108.85;59.00;;;;;;;19.98;82.10;99565.84;5047430;28;20060;-94
2022/07/06 02:59:59;;;;;;;126.95;60.42;;;;;;;19.65;82.05;99513.75;5041441;28;20021;-92
2022/07/06 03:02:29;;;;;;;118.32;59.78;;;;;;;19.95;82.51;99553.50;5007446;28;20523;-93
2022/07/06 03:04:56;;;;;;;116.97;61.97;;;;;;;20.34;82.64;99603.34;5006571;28;20041;-96
2022/07/06 03:07:23;;;;;;;126.63;65.10;;;;;;;19.93;82.92;99530.91;5040894;28;20022;-89
2022/07/06 03:09:49;;;;;;;;;;;;;;;20.40;82.87;99598.28;4987676;28;20058;-96
2022/07/06 03:12:16;;;;;;;133.30;64.43;;;;;;;20.41;83.08;99595.09;5021323;28;19913;-90
2022/07/06 03:14:43;;;;;;;135.85;66.35;;;;;;;20.22;82.34;99556.31;5002001;28;20049;-90
2022/07/06 03:17:10;;;;;;;144.80;69.70;;;;;;;20.49;82.52;99593.25;5011866;28;20039;-95
2022/07/06 03:19:37;;;;;;;146.70;67.30;;;;;;;20.33;81.81;99568.41;4988381;28;20136;-88
2022/07/06 03:22:03;;;;;;;142.00;68.47;;;;;;;20.57;82.02;99592.22;4990142;28;20072;-93
2022/07/06 03:24:30;;;;;;;135.25;69.05;;;;;;;20.26;82.34;99531.41;5006358;28;20041;-89
2022/07/06 03:26:59;;;;;;;139.95;68.68;;;;;;;20.50;82.53;99555.97;5011615;28;20057;-91
2022/07/06 03:29:25;;;;;;;139.07;70.30;;;;;;;20.51;81.85;99551.25;5010869;28;20045;-90
2022/07/06 03:31:51;;;;;;;138.57;68.32;;;;;;;20.70;82.07;99572.56;5026288;28;20094;-90
2022/07/06 03:34:21;;;;;;;138.30;65.47;;;;;;;20.35;81.55;99504.97;5009533;28;20028;-90
2022/07/06 03:36:47;;;;;;;125.72;65.32;;;;;;;20.93;81.58;99592.75;4994335;28;20129;-93
2022/07/06 03:39:15;;;;;;;124.65;63.72;;;;;;;20.65;81.64;99543.91;5008300;28;20058;-91
2022/07/06 03:41:43;;;;;;;121.18;63.40;;;;;;;20.84;81.59;99561.66;5017435;28;20072;-91
2022/07/06 03:44:15;;;;;;;118.05;60.83;;;;;;;20.67;80.24;99526.09;5023024;28;20014;-89
2022/07/06 03:46:41;;;;;;;122.20;62.80;;;;;;;20.90;81.07;99548.22;4994503;28;20022;-89
2022/07/06 03:49:10;;;;;;;117.57;60.88;;;;;;;20.86;80.06;99534.25;5012771;28;20513;-91
2022/07/06 03:51:37;;;;;;;120.90;62.13;;;;;;;21.14;80.50;99569.97;5013092;28;20018;-90
2022/07/06 03:54:07;;;;;;;121.28;61.40;;;;;;;21.26;80.71;99572.53;4968537;28;20050;-89
2022/07/06 03:56:39;;;;;;;116.03;57.63;;;;;;;21.05;80.11;99525.78;4941409;28;20114;-91
2022/07/06 03:59:17;;;;;;;110.78;59.83;;;;;;;21.33;80.08;99557.91;4952865;29;20051;-91
2022/07/06 04:01:46;;;;;;;131.40;60.20;;;;;;;21.43;80.50;99556.47;4983230;28;20105;-92
2022/07/06 04:04:20;;;;;;;116.72;60.83;;;;;;;21.70;81.14;99580.19;4987516;28;20035;-90
2022/07/06 04:06:47;;;;;;;114.28;60.35;;;;;;;21.43;79.64;99537.00;4968844;28;20039;-90
2022/07/06 04:09:14;;;;;;;;;;;;;;;21.84;79.79;99587.09;4953782;28;20031;-91
2022/07/06 04:11:44;;;;;;;114.20;56.67;;;;;;;21.64;80.08;99544.75;4988314;28;19993;-90
2022/07/06 04:14:10;;;;;;;119.25;58.45;;;;;;;21.52;79.29;99512.44;4954407;28;20023;-90
2022/07/06 04:16:42;;;;;;;109.95;56.28;;;;;;;21.58;78.09;99519.25;4984495;28;20057;-89
2022/07/06 04:19:14;;;;;;;91.35;53.55;;;;;;;21.89;76.77;99565.28;4983875;28;20031;-91
2022/07/06 04:21:42;;;;;;;105.50;56.38;;;;;;;21.75;75.86;99531.72;4954829;28;20042;-92
2022/07/06 04:24:09;;;;;;;115.57;56.42;;;;;;;22.03;76.39;99565.41;4983134;28;20053;-88
2022/07/06 04:26:36;;;;;;;109.35;58.75;;;;;;;21.91;77.24;99537.84;4994959;28;20403;-89
2022/07/06 04:29:03;;;;;;;107.80;57.20;;;;;;;21.97;78.10;99533.53;5001147;28;20034;-90
2022/07/06 04:31:29;;;;;;;116.07;61.97;;;;;;;22.18;78.12;99552.41;4984431;28;20041;-89
2022/07/06 04:33:56;;;;;;;116.10;59.85;;;;;;;22.25;76.67;99558.06;5021134;28;20140;-89
2022/07/06 04:36:27;;;;;;;107.90;58.75;;;;;;;22.33;74.98;99549.78;4991032;28;20039;-89
2022/07/06 04:38:57;;;;;;;117.15;61.22;;;;;;;22.43;75.81;99560.97;4990491;28;20181;-93
2022/07/06 04:41:23;;;;;;;113.40;59.83;;;;;;;22.49;75.98;99550.28;5020877;28;20038;-87
2022/07/06 04:43:52;;;;;;;122.60;59.08;;;;;;;22.54;74.49;99552.69;4986303;28;20475;-87
2022/07/06 04:46:19;;;;;;;110.68;59.22;;;;;;;22.66;75.17;99555.16;5016848;28;20073;-88
2022/07/06 04:48:48;;;;;;;120.38;59.33;;;;;;;22.82;76.43;99568.81;5026351;28;20128;-87
2022/07/06 04:51:22;;;;;;;119.97;59.60;;;;;;;22.67;75.34;99530.88;5008981;28;20539;-87
2022/07/06 04:53:50;;;;;;;109.10;57.75;;;;;;;22.82;73.15;99546.50;4983258;28;20415;-88
2022/07/06 04:56:22;;;;;;;106.10;58.65;;;;;;;22.79;73.97;99538.13;5024612;28;20042;-90
2022/07/06 04:58:49;;;;;;;111.07;59.45;;;;;;;23.11;73.20;99561.41;4991778;28;20096;-86
2022/07/06 05:01:18;;;;;;;117.88;60.83;;;;;;;23.04;73.48;99541.03;5013610;28;20448;-93
2022/07/06 05:03:45;;;;;;;128.63;62.28;;;;;;;23.06;73.31;99521.94;5022343;28;20038;-88
2022/07/06 05:06:14;;;;;;;120.10;59.13;;;;;;;23.21;71.57;99545.91;5009395;28;20120;-94
2022/07/06 05:08:41;;;;;;;112.13;59.30;;;;;;;23.29;71.98;99546.75;5009174;28;20042;-86
2022/07/06 05:11:07;;;;;;;131.52;62.30;;;;;;;23.37;71.49;99545.56;5023889;28;20038;-85
2022/07/06 05:13:34;;;;;;;128.63;59.15;;;;;;;23.49;71.96;99559.16;5015308;28;20042;-92
2022/07/06 05:16:00;;;;;;;113.47;58.72;;;;;;;23.60;70.45;99559.97;5003118;28;20096;-87
2022/07/06 05:18:44;;;;;;;124.95;60.38;;;;;;;23.78;71.87;99570.44;5007810;28;20053;-94
2022/07/06 05:21:10;;;;;;;112.47;53.72;;;;;;;23.59;71.05;99536.06;4984865;28;20079;-88
2022/07/06 05:23:38;;;;;;;95.72;48.25;;;;;;;23.74;69.99;99542.50;5016371;28;20052;-88
2022/07/06 05:26:05;;;;;;;84.22;45.60;;;;;;;23.97;70.55;99561.66;5012932;28;20103;-96
2022/07/06 05:28:32;;;;;;;122.35;55.03;;;;;;;24.07;71.33;99563.69;5031100;28;20069;-87
2022/07/06 05:30:59;;;;;;;109.30;53.53;;;;;;;24.04;70.63;99555.28;5019439;28;20131;-91
2022/07/06 05:33:28;;;;;;;113.20;54.55;;;;;;;24.10;70.18;99543.31;5002985;28;20036;-96
2022/07/06 05:35:54;;;;;;;122.38;57.58;;;;;;;24.30;72.03;99559.66;5021744;28;20308;-86
2022/07/06 05:38:25;;;;;;;113.22;55.03;;;;;;;24.18;70.41;99532.16;5018979;28;20057;-89
2022/07/06 05:40:55;;;;;;;121.40;57.00;;;;;;;24.36;70.41;99563.66;5039913;28;20103;-89
2022/07/06 05:43:21;;;;;;;;;;;;;;;24.38;70.03;99559.28;5020421;28;20049;-84
2022/07/06 05:46:00;;;;;;;112.00;51.72;;;;;;;24.38;69.56;99550.09;5036078;28;19988;-87
2022/07/06 05:51:18;;;;;;;118.53;50.50;;;;;;;24.53;69.70;99546.09;5022258;28;20017;-94
2022/07/06 05:54:00;;;;;;;102.05;50.72;;;;;;;24.21;68.29;99475.50;5029034;28;20045;-94
2022/07/06 06:00:00;;;;;;;97.32;48.63;;;;;;;24.78;67.52;99550.84;5005641;28;20041;-90
2022/07/06 06:02:36;;;;;;;92.70;47.65;;;;;;;24.49;67.93;99499.81;5000878;28;20068;-89
2022/07/06 06:05:03;;;;;;;95.53;48.08;;;;;;;24.52;67.25;99488.59;5012871;28;20048;-88
2022/07/06 06:07:30;;;;;;;122.18;50.70;;;;;;;24.86;67.61;99530.03;5002483;28;20077;-86
2022/07/06 06:09:56;;;;;;;105.32;49.65;;;;;;;25.17;66.88;99566.75;4998854;28;20448;-86
2022/07/06 06:12:24;;;;;;;104.65;48.80;;;;;;;25.19;67.12;99553.13;5019199;28;20045;-86
2022/07/06 06:14:50;;;;;;;80.90;43.00;;;;;;;25.23;67.60;99554.72;5025367;28;20123;-86
2022/07/06 06:17:16;;;;;;;86.20;48.50;;;;;;;25.29;66.69;99541.88;5003000;28;20105;-95
2022/07/06 06:19:42;;;;;;;81.80;44.72;;;;;;;25.27;64.69;99549.91;5002579;28;20069;-85
2022/07/06 06:22:08;;;;;;;83.55;44.40;;;;;;;25.43;66.66;99557.81;5024258;28;20057;-87
2022/07/06 06:24:34;;;;;;;81.53;45.17;;;;;;;25.49;66.17;99555.38;5041474;28;20037;-86
2022/07/06 06:27:03;;;;;;;79.97;45.63;;;;;;;25.47;66.36;99553.00;5037293;28;20046;-85
2022/07/06 06:29:29;;;;;;;92.50;44.88;;;;;;;25.46;65.94;99525.41;5039914;28;20044;-85
2022/07/06 06:31:55;;;;;;;84.47;45.03;;;;;;;25.59;65.85;99542.53;5025201;28;20041;-88
2022/07/06 06:34:24;;;;;;;78.47;42.97;;;;;;;25.45;64.68;99507.81;5044847;28;20041;-88
2022/07/06 06:36:53;;;;;;;97.90;44.60;;;;;;;25.51;65.26;99525.00;5045558;28;20091;-88
2022/07/06 06:39:20;;;;;;;88.75;41.03;;;;;;;25.61;65.06;99517.72;5046760;28;20049;-86
2022/07/06 06:41:46;;;;;;;91.32;47.05;;;;;;;25.80;66.21;99541.63;5023937;28;20065;-86
2022/07/06 06:44:14;;;;;;;86.05;46.92;;;;;;;25.77;65.27;99529.22;5026811;28;20085;-86
2022/07/06 06:46:41;;;;;;;83.00;39.38;;;;;;;25.90;64.33;99527.56;5019688;28;20029;-87
2022/07/06 06:49:07;;;;;;;92.28;49.78;;;;;;;25.85;64.09;99516.78;5036452;28;20026;-88
2022/07/06 06:51:34;;;;;;;85.45;47.85;;;;;;;25.92;65.22;99522.31;5032516;28;20044;-84
2022/07/06 06:54:00;;;;;;;77.30;42.10;;;;;;;25.99;64.34;99527.88;5025814;28;20049;-87
2022/07/06 06:56:28;;;;;;;102.65;44.28;;;;;;;25.76;64.77;99475.22;4993210;28;20526;-88
2022/07/06 06:58:54;;;;;;;86.60;44.67;;;;;;;26.19;62.37;99539.34;5025078;28;20040;-89
2022/07/06 07:01:21;;;;;;;85.18;43.42;;;;;;;26.25;62.49;99536.84;5032872;28;20138;-91
2022/07/06 07:03:48;;;;;;;79.32;40.35;;;;;;;26.26;62.64;99521.66;5007386;28;20050;-92
2022/07/06 07:06:18;;;;;;;71.95;41.97;;;;;;;26.35;62.28;99518.34;5028779;28;20022;-88
2022/07/06 07:08:44;;;;;;;80.82;39.42;;;;;;;26.37;62.48;99516.72;5012086;28;20105;-87
2022/07/06 07:11:14;;;;;;;70.15;39.20;;;;;;;26.41;62.02;99511.09;5030842;28;20049;-87
2022/07/06 07:13:40;;;;;;;74.68;38.53;;;;;;;26.62;60.93;99540.94;4981858;28;20056;-87
2022/07/06 07:16:09;;;;;;;69.45;36.03;;;;;;;26.43;59.99;99500.25;5020107;28;20046;-87
2022/07/06 07:18:42;;;;;;;69.45;35.72;;;;;;;26.57;62.01;99513.38;5006364;28;20034;-87
2022/07/06 07:21:09;;;;;;;71.07;37.70;;;;;;;26.69;61.80;99524.84;5017601;28;20018;-91
2022/07/06 07:23:35;;;;;;;60.10;34.67;;;;;;;26.91;59.80;99547.03;5021935;28;20048;-91
2022/07/06 07:26:01;;;;;;;;;;;;;;;27.04;60.36;99533.25;5020124;28;20050;-93
2022/07/06 07:28:27;;;;;;;;;;;;;;;27.15;59.83;99556.38;5011249;28;19921;-94
2022/07/06 07:30:53;;;;;;;;;;;;;;;27.12;59.09;99558.03;5016715;28;19921;-85
2022/07/06 07:33:19;;;;;;;57.75;34.17;;;;;;;26.99;59.08;99514.88;5028219;28;20008;-86
2022/07/06 07:35:45;;;;;;;77.07;40.75;;;;;;;27.19;57.00;99550.75;4996066;28;20049;-86
2022/07/06 07:38:13;;;;;;;68.95;39.10;;;;;;;27.00;57.29;99516.47;5013376;28;20411;-95
2022/07/06 07:40:39;;;;;;;;;;;;;;;27.34;57.75;99552.16;5017056;28;20048;-95
2022/07/06 07:43:08;;;;;;;56.72;34.78;;;;;;;27.29;58.45;99533.78;5032889;28;19975;-85
2022/07/06 07:45:34;;;;;;;62.42;35.85;;;;;;;27.41;57.15;99552.84;4993388;28;20045;-87
2022/07/06 07:48:00;;;;;;;70.93;39.30;;;;;;;27.26;57.25;99519.78;4990357;28;20450;-85
2022/07/06 07:50:26;;;;;;;62.40;35.78;;;;;;;27.32;57.39;99523.72;4987912;28;20052;-86
2022/07/06 07:52:53;;;;;;;67.65;35.35;;;;;;;27.44;57.88;99525.16;5018266;28;20089;-86
2022/07/06 07:55:18;;;;;;;;;;;;;;;27.66;57.84;99548.91;5033013;28;20097;-95
2022/07/06 07:57:45;;;;;;;53.05;33.25;;;;;;;27.75;58.34;99540.75;5016154;28;20014;-93
2022/07/06 08:00:11;;;;;;;61.72;33.70;;;;;;;27.75;56.94;99514.66;5022829;28;20038;-88
2022/07/06 08:02:37;;;;;;;57.40;33.08;;;;;;;27.81;55.91;99538.25;4994633;28;20042;-95
2022/07/06 08:05:04;;;;;;;59.08;34.38;;;;;;;27.73;55.53;99529.13;5016354;28;20527;-94
2022/07/06 08:07:30;;;;;;;54.33;33.75;;;;;;;27.57;55.80;99500.88;5006009;28;20046;-88
2022/07/06 08:09:56;;;;;;;;;;;;;;;27.87;56.00;99545.00;4966868;28;20050;-87
2022/07/06 08:12:24;;;;;;;62.08;34.10;;;;;;;27.69;56.31;99514.34;5011249;28;19922;-90
2022/07/06 08:14:53;;;;;;;69.88;37.17;;;;;;;27.83;56.28;99516.19;5005354;28;20065;-93
2022/07/06 08:17:19;;;;;;;69.47;38.83;;;;;;;27.81;54.89;99522.19;4986495;28;20109;-95
2022/07/06 08:19:46;;;;;;;67.85;37.95;;;;;;;27.79;55.37;99535.09;4968916;28;20042;-95
2022/07/06 08:22:13;;;;;;;88.28;42.50;;;;;;;27.73;56.59;99515.09;5006972;28;20046;-94
2022/07/06 08:24:39;;;;;;;88.82;40.17;;;;;;;27.79;56.10;99509.81;5024532;28;20093;-91
2022/07/06 08:27:05;;;;;;;78.05;39.15;;;;;;;27.86;55.85;99524.53;5006552;28;20034;-93
2022/07/06 08:29:31;;;;;;;;;;;;;;;27.94;56.13;99535.66;5012814;28;20041;-93
2022/07/06 08:31:57;;;;;;;71.35;36.35;;;;;;;27.91;57.18;99514.03;5015490;28;20397;-86
2022/07/06 08:34:23;;;;;;;84.25;36.78;;;;;;;28.06;55.46;99535.88;4998023;28;20037;-89
2022/07/06 08:36:50;;;;;;;;;;;;;;;28.09;54.25;99535.00;5015021;28;20037;-95
2022/07/06 08:39:17;;;;;;;68.55;34.55;;;;;;;28.05;54.30;99511.00;4997422;28;19921;-94
2022/07/06 08:41:47;;;;;;;70.00;35.80;;;;;;;28.23;54.83;99511.47;5016430;28;20507;-94
2022/07/06 08:44:17;;;;;;;59.15;34.00;;;;;;;28.29;53.85;99515.38;4998330;28;20046;-88
2022/07/06 08:46:44;;;;;;;56.45;33.10;;;;;;;28.46;53.66;99524.75;5015400;28;20044;-86
2022/07/06 08:49:16;;;;;;;70.68;34.28;;;;;;;28.46;54.03;99510.69;5016304;28;20048;-95
2022/07/06 08:51:45;;;;;;;59.15;33.22;;;;;;;28.64;53.38;99515.19;4999328;28;20494;-94
2022/07/06 08:54:12;;;;;;;53.33;33.30;;;;;;;28.45;51.73;99519.56;5027954;28;20041;-91
2022/07/06 08:56:39;;;;;;;59.97;34.65;;;;;;;28.44;51.14;99518.75;5021139;28;20524;-92
2022/07/06 08:59:08;;;;;;;56.28;34.97;;;;;;;28.38;50.66;99488.72;5037369;28;20048;-86
2022/07/06 09:01:35;;;;;;;68.55;34.92;;;;;;;28.57;50.07;99513.31;5040435;28;20033;-93
2022/07/06 09:04:06;;;;;;;53.95;34.70;;;;;;;28.52;51.76;99497.72;5029071;28;20042;-95
2022/07/06 09:06:35;;;;;;;57.13;34.20;;;;;;;28.68;52.00;99525.16;5015344;28;20038;-92
2022/07/06 09:09:06;;;;;;;56.05;35.28;;;;;;;28.54;51.74;99497.28;4981159;28;20399;-86
2022/07/06 09:11:33;;;;;;;65.10;34.75;;;;;;;28.65;51.49;99503.53;4981288;28;20049;-86
2022/07/06 09:13:59;;;;;;;58.55;35.70;;;;;;;28.83;51.96;99517.22;5006864;28;20091;-95
2022/07/06 09:16:30;;;;;;;57.70;36.40;;;;;;;28.53;49.64;99473.22;5035887;28;20041;-86
2022/07/06 09:18:57;;;;;;;66.30;34.47;;;;;;;28.66;51.44;99476.97;5037338;28;20041;-89
2022/07/06 09:21:32;;;;;;;59.10;33.50;;;;;;;28.82;51.57;99483.91;5038198;28;20501;-96
2022/07/06 09:24:02;;;;;;;60.58;34.00;;;;;;;28.92;51.53;99474.44;5025028;28;20094;-96
2022/07/06 09:26:28;;;;;;;63.10;35.25;;;;;;;29.02;51.05;99484.72;5056545;28;20041;-91
2022/07/06 09:28:59;;;;;;;62.42;37.63;;;;;;;29.14;50.18;99500.13;5015356;28;20053;-85
2022/07/06 09:31:25;;;;;;;68.55;35.20;;;;;;;29.22;50.97;99508.00;5015148;28;20046;-96
2022/07/06 09:34:05;;;;;;;61.15;36.22;;;;;;;29.24;51.27;99507.56;5014745;28;20359;-88
2022/07/06 09:36:48;;;;;;;65.18;35.95;;;;;;;29.00;50.39;99478.72;5015336;28;20097;-88
2022/07/06 09:39:26;;;;;;;66.10;37.78;;;;;;;29.12;50.23;99494.16;5016718;28;20037;-94
2022/07/06 09:41:58;;;;;;;60.88;35.65;;;;;;;28.86;51.15;99456.47;5035409;28;20045;-88
2022/07/06 09:44:29;;;;;;;69.03;38.25;;;;;;;28.82;50.90;99476.25;5017667;28;20128;-85
2022/07/06 09:46:58;;;;;;;60.03;37.33;;;;;;;28.71;51.47;99479.28;5017708;28;20046;-95
2022/07/06 09:49:25;;;;;;;64.03;37.90;;;;;;;28.53;51.78;99476.03;5032120;28;20402;-95
2022/07/06 09:51:54;;;;;;;68.45;39.58;;;;;;;28.61;52.79;99485.09;5036377;28;20450;-86
2022/07/06 09:54:23;;;;;;;64.63;35.22;;;;;;;28.82;51.41;99495.16;5037446;28;20032;-94
2022/07/06 09:56:53;;;;;;;62.90;36.28;;;;;;;28.97;50.08;99468.28;5054757;28;20049;-85
2022/07/06 09:59:24;;;;;;;66.45;37.00;;;;;;;29.02;49.67;99454.53;5044542;28;20132;-87
2022/07/06 10:02:03;;;;;;;55.17;35.53;;;;;;;29.31;50.79;99484.09;5016933;28;20041;-86
2022/07/06 10:04:29;;;;;;;67.03;36.42;;;;;;;29.39;50.07;99479.88;5033393;28;20037;-96
2022/07/06 10:06:58;;;;;;;56.83;36.38;;;;;;;29.47;49.16;99472.84;5034332;28;20091;-93
2022/07/06 10:09:26;;;;;;;58.10;35.90;;;;;;;29.38;48.86;99448.09;5021140;28;20041;-91
2022/07/06 10:12:02;;;;;;;66.45;38.58;;;;;;;29.62;49.61;99460.03;5019735;28;20462;-88
2022/07/06 10:14:30;;;;;;;67.13;37.97;;;;;;;29.69;47.12;99457.03;5019257;28;20395;-89
2022/07/06 10:17:02;;;;;;;61.22;37.78;;;;;;;29.59;47.92;99452.44;5037412;28;20037;-87
2022/07/06 10:19:30;;;;;;;53.53;36.03;;;;;;;29.55;47.73;99440.47;5052466;28;20048;-89
2022/07/06 10:22:02;;;;;;;53.97;35.17;;;;;;;29.80;47.57;99464.44;5020027;28;20069;-87
2022/07/06 10:24:29;;;;;;;54.55;34.38;;;;;;;29.41;46.60;99409.84;5034584;28;20124;-91
2022/07/06 10:26:56;;;;;;;55.97;34.97;;;;;;;29.49;47.38;99453.47;5016594;28;20049;-86
2022/07/06 10:29:24;;;;;;;66.78;35.58;;;;;;;29.19;48.33;99440.50;5035728;28;20064;-94
2022/07/06 10:31:51;;;;;;;62.42;37.38;;;;;;;29.01;47.85;99446.53;5055791;28;20100;-86
2022/07/06 10:34:21;;;;;;;60.17;37.55;;;;;;;28.96;48.94;99449.81;5052355;28;20068;-89
2022/07/06 10:36:54;;;;;;;58.60;35.60;;;;;;;28.89;48.87;99450.78;5014244;28;20073;-95
2022/07/06 10:42:49;;;;;;;66.60;36.17;;;;;;;28.40;53.53;99478.66;5049299;28;19921;-96
2022/07/06 10:45:41;;;;;;;51.95;25.98;;;;;;;27.75;52.44;99467.72;5019807;28;20053;-90
2022/07/06 10:48:10;;;;;;;47.75;28.13;;;;;;;27.69;55.21;99488.28;5019227;28;20588;-94
2022/07/06 10:50:42;;;;;;;44.15;25.23;;;;;;;27.52;57.08;99445.22;5036483;28;20033;-86
2022/07/06 10:53:13;;;;;;;49.50;29.48;;;;;;;27.62;55.92;99416.16;5024262;28;20049;-96
2022/07/06 10:55:47;;;;;;;55.95;33.95;;;;;;;28.15;55.21;99436.16;5037446;28;20100;-86
2022/07/06 10:58:14;;;;;;;69.18;33.97;;;;;;;28.49;54.38;99439.53;5047750;28;20048;-85
2022/07/06 11:01:01;;;;;;;63.28;35.60;;;;;;;28.67;55.66;99441.97;5055245;28;20128;-86
2022/07/06 11:03:45;;;;;;;53.53;34.95;;;;;;;28.89;57.48;99441.53;5054822;28;20102;-86
2022/07/06 11:06:20;;;;;;;59.75;35.03;;;;;;;28.82;54.41;99422.78;5064588;28;20043;-96
2022/07/06 11:08:48;;;;;;;57.83;33.42;;;;;;;29.10;51.57;99438.28;5052224;28;20043;-92
2022/07/06 11:11:17;;;;;;;48.78;32.00;;;;;;;29.19;51.04;99429.25;5035017;28;20109;-96
2022/07/06 11:13:52;;;;;;;56.90;35.42;;;;;;;29.29;54.04;99433.03;5036470;28;20041;-96
2022/07/06 11:16:19;;;;;;;52.45;33.40;;;;;;;29.46;49.40;99451.53;5020344;28;20042;-88
2022/07/06 11:19:01;;;;;;;54.00;33.70;;;;;;;29.55;49.67;99443.28;5020861;28;20061;-86
2022/07/06 11:21:56;;;;;;;57.97;34.38;;;;;;;29.69;47.22;99445.78;4999830;28;20419;-96
2022/07/06 11:24:26;;;;;;;52.58;33.83;;;;;;;29.70;47.34;99424.84;5015568;28;20050;-87
2022/07/06 11:26:53;;;;;;;59.58;35.88;;;;;;;29.82;49.39;99431.75;5012820;28;20522;-86
2022/07/06 11:29:23;;;;;;;55.47;33.85;;;;;;;29.44;48.32;99392.06;5014438;28;20125;-90
2022/07/06 11:31:56;;;;;;;51.50;33.80;;;;;;;29.33;48.09;99391.50;5034394;28;20045;-86
2022/07/06 11:34:25;;;;;;;52.05;32.97;;;;;;;29.45;47.87;99402.09;5014597;28;20072;-91
2022/07/06 11:37:07;;;;;;;56.67;33.97;;;;;;;29.49;47.91;99403.56;5032591;28;20037;-92
2022/07/06 11:39:35;;;;;;;55.67;32.05;;;;;;;29.57;46.70;99403.38;5054054;28;20046;-92
2022/07/06 11:42:05;;;;;;;49.95;32.58;;;;;;;29.65;46.95;99435.84;5049563;28;20045;-96
2022/07/06 11:44:32;;;;;;;53.35;32.90;;;;;;;29.34;48.46;99390.25;5034119;28;20124;-94
2022/07/06 11:47:00;;;;;;;52.35;32.10;;;;;;;29.16;49.31;99391.50;5016286;28;20567;-87
2022/07/06 11:49:27;;;;;;;50.50;32.88;;;;;;;29.30;49.12;99434.63;5016120;28;20045;-96
2022/07/06 11:51:53;;;;;;;49.80;32.17;;;;;;;29.25;48.07;99428.28;5026313;28;20080;-94
2022/07/06 11:54:24;;;;;;;50.33;32.35;;;;;;;29.09;48.50;99399.31;5053617;28;20036;-96
2022/07/06 11:56:59;;;;;;;55.63;32.97;;;;;;;29.42;49.22;99412.19;5035933;28;20067;-94